Time;durP1;ratioP1;P1;durP2;ratioP2;P2;SDS_P1;SDS_P2;PMS_P1;PMS_P2;Temp;Humidity;BMP_temperature;BMP_pressure;BME280_temperature;BME280_humidity;BME280_pressure;Samples;Min_cycle;Max_cycle;Signal;HPM_P1;HPM_P2
2022/09/08 00:00:14;;;;;;;4.60;3.35;;;;;;;24.84;44.18;95210.69;5005512;28;20534;-68
2022/09/08 00:02:40;;;;;;;4.43;3.53;;;;;;;24.74;43.68;95194.41;4987383;28;20487;-68
2022/09/08 00:05:06;;;;;;;4.60;3.55;;;;;;;24.63;43.87;95167.25;5001083;28;20110;-66
2022/09/08 00:07:32;;;;;;;5.38;3.70;;;;;;;24.63;44.27;95173.44;4994702;28;20062;-62
2022/09/08 00:09:58;;;;;;;5.53;3.90;;;;;;;24.81;44.00;95207.50;4987526;28;20281;-64
2022/09/08 00:12:24;;;;;;;6.15;3.63;;;;;;;24.76;44.22;95195.41;4992785;28;20025;-65
2022/09/08 00:14:51;;;;;;;5.15;3.70;;;;;;;25.24;43.90;95264.41;4986264;28;20101;-67
2022/09/08 00:17:17;;;;;;;4.40;3.10;;;;;;;24.81;44.42;95215.72;4996503;28;20037;-67
2022/09/08 00:19:43;;;;;;;5.55;3.78;;;;;;;24.56;43.90;95189.69;4988301;28;20521;-69
2022/09/08 00:22:08;;;;;;;4.57;3.72;;;;;;;24.81;44.03;95215.72;4991178;28;20030;-68
2022/09/08 00:24:34;;;;;;;5.18;3.40;;;;;;;25.19;44.15;95284.34;4985694;28;20105;-66
2022/09/08 00:26:59;;;;;;;4.75;3.55;;;;;;;24.48;44.33;95161.44;5003518;28;20809;-63
2022/09/08 00:29:26;;;;;;;4.47;3.65;;;;;;;24.82;43.93;95210.47;5003818;28;20045;-64
2022/09/08 00:31:51;;;;;;;4.10;3.38;;;;;;;24.78;44.01;95216.72;5004965;28;20116;-63
2022/09/08 00:34:17;;;;;;;7.43;3.97;;;;;;;24.77;44.07;95220.69;4991638;28;20034;-67
2022/09/08 00:36:42;;;;;;;5.32;3.50;;;;;;;24.73;44.22;95214.81;4980500;28;20034;-67
2022/09/08 00:39:08;;;;;;;5.93;3.33;;;;;;;25.07;44.20;95266.59;4985085;28;20466;-69
2022/09/08 00:41:35;;;;;;;4.57;3.25;;;;;;;25.15;44.26;95272.97;4981469;28;20043;-62
2022/09/08 00:44:37;;;;;;;5.78;3.70;;;;;;;23.85;43.75;95099.56;4965093;28;20050;-62
2022/09/08 00:47:03;;;;;;;5.20;3.70;;;;;;;25.00;44.38;95260.97;4979466;28;20503;-63
2022/09/08 00:49:28;;;;;;;4.57;3.38;;;;;;;23.46;43.85;95077.31;4958091;28;20034;-62
2022/09/08 00:51:55;;;;;;;4.72;3.67;;;;;;;24.67;44.34;95223.06;4965136;28;20037;-62
2022/09/08 00:54:20;;;;;;;5.97;3.47;;;;;;;25.15;44.07;95280.44;4938886;28;20038;-64
2022/09/08 00:56:46;;;;;;;4.40;3.38;;;;;;;25.14;44.26;95278.94;4964460;28;20038;-62
2022/09/08 00:59:12;;;;;;;4.82;3.50;;;;;;;24.50;43.96;95181.53;4965473;28;20030;-62
2022/09/08 01:01:38;;;;;;;5.30;3.33;;;;;;;25.12;44.11;95284.91;4937199;28;20042;-64
2022/09/08 01:04:04;;;;;;;4.13;3.65;;;;;;;25.09;44.21;95269.53;4966667;28;20026;-63
2022/09/08 01:12:44;;;;;;;5.07;3.38;;;;;;;24.45;43.68;95185.06;4984256;28;20061;-64
2022/09/08 01:15:20;;;;;;;6.65;3.53;;;;;;;24.57;44.39;95196.59;4955044;28;20041;-63
2022/09/08 01:17:47;;;;;;;4.75;3.80;;;;;;;24.48;44.16;95177.81;4978864;28;20110;-65
2022/09/08 01:20:13;;;;;;;5.18;3.88;;;;;;;25.06;43.99;95270.56;4992098;28;20597;-62
2022/09/08 01:22:47;;;;;;;4.72;3.50;;;;;;;25.06;44.18;95265.09;4963598;28;20163;-63
2022/09/08 01:25:43;;;;;;;4.35;3.53;;;;;;;25.05;44.26;95273.81;4983268;28;20023;-63
2022/09/08 01:28:49;;;;;;;5.40;3.58;;;;;;;24.77;44.25;95226.16;4983610;28;20552;-61
2022/09/08 01:31:14;;;;;;;5.88;3.47;;;;;;;25.05;44.20;95268.34;4881112;29;20056;-61
2022/09/08 01:33:40;;;;;;;4.95;3.33;;;;;;;25.06;44.06;95265.09;4957164;28;20045;-61
2022/09/08 01:36:09;;;;;;;5.07;3.42;;;;;;;24.95;44.06;95270.69;4992187;28;20108;-64
2022/09/08 01:38:35;;;;;;;3.65;3.15;;;;;;;24.98;44.24;95269.66;4989424;28;20054;-63
2022/09/08 01:41:00;;;;;;;5.35;3.65;;;;;;;24.54;44.04;95208.53;4985310;28;20565;-66
2022/09/08 01:43:25;;;;;;;4.20;3.30;;;;;;;24.66;44.55;95226.28;5004700;28;20048;-65
2022/09/08 01:45:51;;;;;;;4.45;3.40;;;;;;;24.99;44.57;95276.63;4995220;28;20146;-62
2022/09/08 01:48:17;;;;;;;6.40;3.72;;;;;;;24.19;44.05;95200.41;4980038;28;20093;-62
2022/09/08 01:50:42;;;;;;;4.85;3.30;;;;;;;24.62;44.10;95203.97;5002741;28;20038;-61
2022/09/08 01:53:08;;;;;;;4.30;3.65;;;;;;;24.15;44.25;95145.38;4986406;28;20504;-64
2022/09/08 01:55:33;;;;;;;5.10;3.40;;;;;;;24.70;44.17;95237.69;5002679;28;20042;-62
2022/09/08 01:57:59;;;;;;;4.97;3.75;;;;;;;24.98;44.02;95275.13;5003064;28;20474;-64
2022/09/08 02:00:24;;;;;;;4.68;3.50;;;;;;;24.53;44.63;95205.09;5002510;28;20030;-63
2022/09/08 02:02:50;;;;;;;3.60;3.10;;;;;;;24.90;43.78;95246.91;4993803;28;20483;-65
2022/09/08 02:05:16;;;;;;;4.13;3.60;;;;;;;24.86;44.03;95246.44;4983749;28;20462;-61
2022/09/08 02:07:42;;;;;;;5.10;3.53;;;;;;;24.96;44.22;95269.44;5002760;28;20166;-63
2022/09/08 02:10:08;;;;;;;4.03;3.17;;;;;;;24.62;44.01;95204.75;5004169;28;20253;-62
2022/09/08 02:12:33;;;;;;;4.35;3.40;;;;;;;24.74;43.71;95221.72;5001200;28;20430;-63
2022/09/08 02:14:59;;;;;;;5.00;3.67;;;;;;;24.49;44.04;95179.31;4987835;28;20113;-61
2022/09/08 02:17:24;;;;;;;5.07;3.60;;;;;;;24.94;43.59;95280.13;5003616;28;20809;-62
2022/09/08 02:19:51;;;;;;;4.13;3.63;;;;;;;24.69;44.27;95208.88;5006698;28;20056;-67
2022/09/08 02:22:17;;;;;;;4.75;3.20;;;;;;;24.34;43.74;95165.31;5010830;28;20037;-62
2022/09/08 02:24:42;;;;;;;3.45;3.05;;;;;;;24.92;43.79;95255.31;5000326;28;20026;-62
2022/09/08 02:27:08;;;;;;;4.90;3.35;;;;;;;24.94;44.25;95247.31;5000941;28;20038;-64
2022/09/08 02:29:33;;;;;;;5.20;3.20;;;;;;;24.36;44.03;95181.91;5001679;28;20053;-66
2022/09/08 02:31:59;;;;;;;4.93;3.53;;;;;;;24.63;43.95;95227.31;5006300;28;20049;-62
2022/09/08 02:34:24;;;;;;;3.97;3.20;;;;;;;24.14;44.25;95143.91;5006075;28;20441;-63
2022/09/08 02:36:50;;;;;;;5.40;3.40;;;;;;;24.84;44.07;95248.19;5006166;28;20146;-64
2022/09/08 02:39:17;;;;;;;4.93;3.45;;;;;;;24.82;44.36;95229.56;4999463;28;20047;-65
2022/09/08 02:41:42;;;;;;;3.45;3.13;;;;;;;24.92;44.39;95238.91;5007951;28;20751;-63
2022/09/08 02:44:09;;;;;;;3.80;3.10;;;;;;;24.88;43.99;95243.19;4978906;28;20038;-60
2022/09/08 02:46:34;;;;;;;5.28;3.10;;;;;;;24.48;44.07;95191.47;4984194;28;20042;-63
2022/09/08 02:49:00;;;;;;;6.85;3.80;;;;;;;24.58;44.10;95225.38;5006407;28;20088;-64
2022/09/08 02:51:25;;;;;;;5.85;3.70;;;;;;;24.21;44.21;95154.25;5005164;28;20510;-66
2022/09/08 02:53:52;;;;;;;5.00;3.80;;;;;;;23.89;44.22;95100.75;5011859;28;20117;-64
2022/09/08 02:56:17;;;;;;;4.20;3.80;;;;;;;24.48;44.17;95189.50;4976640;28;20030;-64
2022/09/08 02:58:43;;;;;;;4.47;3.30;;;;;;;24.85;44.29;95244.94;5004702;28;20434;-68
2022/09/08 03:01:09;;;;;;;5.45;3.50;;;;;;;23.99;43.84;95110.81;5007145;28;20029;-67
2022/09/08 03:03:34;;;;;;;4.18;3.50;;;;;;;24.80;44.14;95230.59;4996203;28;20097;-67
2022/09/08 03:06:00;;;;;;;5.82;3.30;;;;;;;24.43;43.99;95182.09;5006005;28;20029;-68
2022/09/08 03:08:25;;;;;;;4.65;3.47;;;;;;;23.99;44.12;95126.44;5006020;28;20037;-68
2022/09/08 03:10:51;;;;;;;5.47;3.20;;;;;;;24.85;43.84;95250.41;5005945;28;20430;-67
2022/09/08 03:13:16;;;;;;;4.18;3.38;;;;;;;24.83;44.32;95250.19;5005883;28;20041;-66
2022/09/08 03:15:42;;;;;;;4.78;3.60;;;;;;;24.41;44.08;95175.69;4976261;28;20109;-65
2022/09/08 03:18:07;;;;;;;4.57;3.50;;;;;;;24.24;44.26;95164.16;5005731;28;20388;-64
2022/09/08 03:20:34;;;;;;;4.72;3.65;;;;;;;24.69;43.83;95236.19;5005822;28;20514;-67
2022/09/08 03:23:00;;;;;;;4.38;3.33;;;;;;;24.72;44.14;95237.91;5010461;28;20038;-68
2022/09/08 03:25:25;;;;;;;3.75;3.28;;;;;;;24.67;44.18;95239.44;4997598;28;20470;-68
2022/09/08 03:27:51;;;;;;;5.28;3.55;;;;;;;24.03;43.86;95179.47;4996563;28;20093;-68
2022/09/08 03:30:17;;;;;;;5.63;3.80;;;;;;;24.80;44.27;95252.47;5005619;28;20471;-68
2022/09/08 03:32:42;;;;;;;4.32;3.58;;;;;;;24.68;43.94;95242.91;5009381;28;20049;-69
2022/09/08 03:35:08;;;;;;;5.38;3.60;;;;;;;24.21;43.93;95181.53;4981047;28;20051;-68
2022/09/08 03:37:35;;;;;;;5.60;3.65;;;;;;;24.57;44.12;95240.28;4976189;28;20044;-67
2022/09/08 03:40:02;;;;;;;4.53;3.50;;;;;;;24.35;44.19;95202.28;4967877;28;20027;-66
2022/09/08 03:42:32;;;;;;;4.32;3.85;;;;;;;24.76;44.38;95262.94;4974740;28;20050;-67
2022/09/08 03:44:57;;;;;;;;;;;;;;;24.75;44.24;95261.47;4985483;28;20036;-66
2022/09/08 03:47:23;;;;;;;4.20;3.40;;;;;;;24.49;43.81;95231.19;4986638;28;19925;-68
2022/09/08 03:49:49;;;;;;;4.28;3.75;;;;;;;23.94;43.85;95136.16;4987967;28;20057;-66
2022/09/08 03:52:15;;;;;;;4.75;3.60;;;;;;;24.74;44.42;95249.81;4976998;28;20815;-66
2022/09/08 03:54:51;;;;;;;3.78;3.38;;;;;;;24.10;44.22;95162.53;4992660;28;20189;-63
2022/09/08 03:57:21;;;;;;;5.15;3.45;;;;;;;24.71;44.23;95255.53;4984927;28;20041;-66
2022/09/08 03:59:47;;;;;;;4.53;3.65;;;;;;;24.72;44.30;95257.03;4984573;28;20092;-62
2022/09/08 04:02:14;;;;;;;4.82;3.28;;;;;;;24.15;43.75;95183.56;4981642;28;20035;-62
2022/09/08 04:04:40;;;;;;;3.97;3.47;;;;;;;24.51;44.35;95242.34;4968440;28;20038;-64
2022/09/08 04:07:05;;;;;;;4.63;3.47;;;;;;;24.40;43.96;95215.13;4974160;28;20034;-67
2022/09/08 04:09:31;;;;;;;6.22;3.40;;;;;;;24.47;43.86;95242.63;4984897;28;20034;-63
2022/09/08 04:11:56;;;;;;;5.18;3.55;;;;;;;24.08;44.18;95183.41;4985419;28;20092;-66
2022/09/08 04:14:22;;;;;;;3.97;3.58;;;;;;;24.07;44.11;95177.22;4984961;28;20784;-65
2022/09/08 04:16:47;;;;;;;8.02;3.60;;;;;;;24.05;44.39;95185.16;4991118;28;20031;-64
2022/09/08 04:19:13;;;;;;;4.10;3.50;;;;;;;24.29;44.50;95217.94;4968669;28;20023;-63
2022/09/08 04:21:38;;;;;;;5.70;3.70;;;;;;;24.35;43.96;95226.84;4977133;28;20026;-68
2022/09/08 04:24:04;;;;;;;4.78;3.88;;;;;;;24.28;44.40;95216.47;4950993;28;20050;-62
2022/09/08 04:26:29;;;;;;;4.75;3.70;;;;;;;24.08;43.86;95184.16;4985983;28;20034;-69
2022/09/08 04:28:56;;;;;;;4.40;4.00;;;;;;;24.61;43.91;95263.31;4981364;28;20502;-67
2022/09/08 04:31:21;;;;;;;5.78;3.70;;;;;;;24.14;44.31;95184.84;4981260;28;20414;-63
2022/09/08 04:33:47;;;;;;;5.55;3.90;;;;;;;24.31;44.21;95201.81;4984813;28;20034;-65
2022/09/08 04:36:20;;;;;;;6.53;3.88;;;;;;;24.70;44.06;95260.25;4983656;28;20407;-66
2022/09/08 04:38:46;;;;;;;5.07;4.15;;;;;;;24.74;43.63;95254.50;4967194;28;20546;-64
2022/09/08 04:41:13;;;;;;;6.13;3.72;;;;;;;24.32;44.10;95200.56;4984892;28;20045;-62
2022/09/08 04:43:38;;;;;;;4.88;3.90;;;;;;;24.54;44.07;95263.16;4983628;28;20062;-62
2022/09/08 04:46:06;;;;;;;6.45;3.78;;;;;;;23.85;43.99;95141.19;4967423;28;20076;-63
2022/09/08 04:48:32;;;;;;;5.75;3.70;;;;;;;24.43;43.99;95219.56;4981499;28;20038;-65
2022/09/08 04:50:58;;;;;;;6.65;4.43;;;;;;;24.46;44.34;95245.84;4965827;28;20053;-63
2022/09/08 04:53:25;;;;;;;4.70;4.15;;;;;;;24.70;44.18;95271.19;4934856;28;20065;-68
2022/09/08 04:55:50;;;;;;;7.50;3.92;;;;;;;24.16;44.18;95185.06;4983566;28;20038;-62
2022/09/08 04:58:16;;;;;;;5.05;4.18;;;;;;;24.68;44.14;95270.22;4981327;28;20026;-62
2022/09/08 05:00:41;;;;;;;6.03;3.80;;;;;;;23.83;44.09;95134.78;4983262;28;20065;-63
2022/09/08 05:03:07;;;;;;;6.18;4.15;;;;;;;24.35;44.26;95207.75;4979110;28;20058;-65
2022/09/08 05:05:35;;;;;;;5.25;4.03;;;;;;;24.09;44.01;95169.25;4968238;28;20047;-65
2022/09/08 05:08:01;;;;;;;6.28;4.07;;;;;;;24.67;44.12;95276.94;4983306;28;20129;-61
2022/09/08 05:10:27;;;;;;;5.50;4.03;;;;;;;24.74;44.57;95298.22;4981849;28;20515;-66
2022/09/08 05:12:53;;;;;;;4.82;3.75;;;;;;;24.75;44.48;95278.56;4974289;28;20877;-67
2022/09/08 05:15:19;;;;;;;4.55;4.05;;;;;;;24.77;44.43;95286.25;4982793;28;20042;-63
2022/09/08 05:17:45;;;;;;;8.27;4.20;;;;;;;24.37;44.08;95227.09;4970563;28;20823;-65
2022/09/08 05:20:11;;;;;;;4.88;4.15;;;;;;;24.35;44.26;95235.78;4983575;28;20042;-65
2022/09/08 05:22:37;;;;;;;5.05;4.18;;;;;;;24.67;43.91;95287.88;4983367;28;20051;-67
2022/09/08 05:25:03;;;;;;;5.93;3.80;;;;;;;24.63;44.22;95276.47;4971047;28;20027;-63
2022/09/08 05:27:29;;;;;;;6.38;4.32;;;;;;;24.07;43.93;95209.22;4985120;28;20438;-62
2022/09/08 05:29:54;;;;;;;6.70;4.15;;;;;;;24.61;44.08;95278.97;4982237;28;20037;-62
2022/09/08 05:32:20;;;;;;;6.05;3.78;;;;;;;24.20;44.39;95210.09;4984128;28;20041;-66
2022/09/08 05:34:46;;;;;;;4.80;3.97;;;;;;;24.74;44.22;95298.22;4984033;28;20055;-62
2022/09/08 05:37:11;;;;;;;5.45;3.90;;;;;;;24.55;43.84;95264.63;4977834;28;20117;-66
2022/09/08 05:39:38;;;;;;;4.20;3.58;;;;;;;24.42;44.20;95242.66;4978776;28;20121;-63
2022/09/08 05:42:04;;;;;;;5.60;3.90;;;;;;;24.30;44.22;95222.16;4980930;28;20116;-64
2022/09/08 05:44:29;;;;;;;7.22;4.45;;;;;;;24.14;43.71;95198.50;4976320;28;20116;-62
2022/09/08 05:46:55;;;;;;;5.53;3.85;;;;;;;24.47;43.90;95242.63;4988690;28;20061;-62
2022/09/08 05:49:20;;;;;;;7.90;4.30;;;;;;;24.31;44.12;95211.97;4978404;28;20039;-64
2022/09/08 05:51:46;;;;;;;5.05;3.65;;;;;;;24.74;43.63;95274.38;4984641;28;20041;-65
2022/09/08 05:54:12;;;;;;;6.47;4.60;;;;;;;24.75;43.75;95305.88;4987985;28;20097;-64
2022/09/08 05:56:37;;;;;;;6.25;3.97;;;;;;;24.43;43.96;95230.50;4987153;28;20045;-63
2022/09/08 05:59:02;;;;;;;6.93;4.05;;;;;;;24.86;44.02;95295.59;4982691;28;20038;-61
2022/09/08 06:01:30;;;;;;;5.88;3.72;;;;;;;24.36;43.88;95220.13;4980309;28;20406;-62
2022/09/08 06:03:55;;;;;;;9.63;4.20;;;;;;;24.77;44.28;95286.25;4988598;28;20628;-64
2022/09/08 06:06:21;;;;;;;8.15;4.30;;;;;;;24.90;43.86;95290.59;4989556;28;20164;-64
2022/09/08 06:08:46;;;;;;;7.80;3.75;;;;;;;24.80;43.91;95285.22;4991746;28;20037;-63
2022/09/08 06:11:12;;;;;;;4.93;3.75;;;;;;;24.93;43.75;95303.25;4984351;28;20058;-64
2022/09/08 06:13:37;;;;;;;5.75;3.65;;;;;;;24.29;43.93;95212.50;4979096;28;20102;-69
2022/09/08 06:16:13;;;;;;;6.05;3.67;;;;;;;24.00;43.99;95158.66;4992920;28;20029;-69
2022/09/08 06:18:40;;;;;;;5.97;3.88;;;;;;;24.87;43.45;95299.06;4980855;28;20046;-65
2022/09/08 06:21:10;;;;;;;6.47;3.88;;;;;;;24.90;43.38;95290.59;4973776;28;20034;-64
2022/09/08 06:23:36;;;;;;;;;;;;;;;25.03;43.37;95304.41;4963588;28;20131;-64
2022/09/08 06:26:20;;;;;;;5.40;3.50;;;;;;;25.04;43.62;95302.41;4982755;28;20029;-63
2022/09/08 06:29:04;;;;;;;6.90;3.55;;;;;;;25.04;43.51;95300.41;4970264;28;20042;-63
2022/09/08 06:31:35;;;;;;;5.97;3.60;;;;;;;24.43;43.52;95222.31;4984173;28;20038;-63
2022/09/08 06:34:03;;;;;;;5.75;3.50;;;;;;;24.32;43.47;95203.28;4986282;28;20041;-62
2022/09/08 06:36:50;;;;;;;5.22;3.55;;;;;;;25.09;43.20;95312.53;4981563;28;20073;-65
2022/09/08 06:39:36;;;;;;;5.78;3.55;;;;;;;24.85;43.20;95283.19;5002466;28;20133;-62
2022/09/08 06:42:28;;;;;;;4.85;3.33;;;;;;;24.65;43.41;95254.84;4988129;28;20053;-65
2022/09/08 06:44:54;;;;;;;5.90;3.55;;;;;;;24.51;43.03;95225.94;5000772;28;20446;-63
2022/09/08 06:47:24;;;;;;;6.22;3.75;;;;;;;24.92;42.56;95293.56;5013192;28;20033;-70
2022/09/08 06:49:50;;;;;;;;;;;;;;;25.15;42.99;95324.88;4966172;28;20030;-65
2022/09/08 06:52:24;;;;;;;4.78;3.70;;;;;;;25.17;43.01;95325.13;4990767;28;19909;-67
2022/09/08 06:54:54;;;;;;;5.63;4.03;;;;;;;24.80;42.94;95274.31;4993925;28;20037;-66
2022/09/08 06:57:26;;;;;;;6.68;4.18;;;;;;;25.15;43.21;95337.81;4989433;28;20064;-68
2022/09/08 07:00:05;;;;;;;6.15;3.65;;;;;;;25.19;42.96;95328.09;5005785;28;20052;-70
2022/09/08 07:02:30;;;;;;;5.25;3.85;;;;;;;25.22;43.00;95332.53;5006840;28;20061;-66
2022/09/08 07:05:31;;;;;;;5.63;4.10;;;;;;;25.26;43.05;95338.47;5006636;28;20034;-68
2022/09/08 07:08:21;;;;;;;5.13;3.90;;;;;;;25.27;42.87;95333.72;4988865;28;20100;-66
2022/09/08 07:10:52;;;;;;;5.72;4.18;;;;;;;25.25;42.70;95331.50;4992843;28;20038;-69
2022/09/08 07:13:21;;;;;;;6.25;4.43;;;;;;;25.29;42.89;95326.50;5006476;28;20034;-64
2022/09/08 07:15:56;;;;;;;5.63;3.78;;;;;;;25.30;42.81;95333.41;4989954;28;20030;-69
2022/09/08 07:18:33;;;;;;;5.53;3.70;;;;;;;25.22;43.09;95320.84;4995339;28;20137;-69
2022/09/08 07:21:21;;;;;;;6.18;3.72;;;;;;;24.55;42.75;95215.50;4985064;28;20121;-62
2022/09/08 07:23:46;;;;;;;6.35;4.15;;;;;;;24.96;43.01;95276.88;5005998;28;20046;-63
2022/09/08 07:26:39;;;;;;;6.47;3.90;;;;;;;25.37;42.57;95333.59;4972342;28;20043;-64
2022/09/08 07:29:33;;;;;;;5.93;4.30;;;;;;;24.82;42.92;95251.44;4986612;28;20042;-67
2022/09/08 07:31:59;;;;;;;6.63;4.10;;;;;;;24.84;42.88;95264.56;4968817;28;20030;-66
2022/09/08 07:34:26;;;;;;;6.38;3.90;;;;;;;25.43;42.88;95341.72;5000110;28;20029;-69
2022/09/08 07:36:52;;;;;;;6.35;4.30;;;;;;;25.44;42.76;95337.72;4979120;28;20484;-64
2022/09/08 07:39:30;;;;;;;7.28;4.47;;;;;;;25.43;42.63;95330.78;4986223;28;20129;-66
2022/09/08 07:41:59;;;;;;;6.70;3.75;;;;;;;25.42;42.58;95315.63;4987200;28;20697;-67
2022/09/08 07:44:24;;;;;;;6.47;4.00;;;;;;;25.51;42.00;95326.22;4969616;28;20069;-68
2022/09/08 07:47:14;;;;;;;6.68;4.10;;;;;;;25.53;42.65;95334.63;4977861;28;20043;-68
2022/09/08 07:49:42;;;;;;;6.65;3.92;;;;;;;25.52;42.47;95338.66;4986392;28;20053;-70
2022/09/08 07:52:38;;;;;;;8.18;3.80;;;;;;;25.52;42.58;95327.72;4983693;28;20027;-62
2022/09/08 07:55:15;;;;;;;5.63;3.78;;;;;;;25.48;42.86;95327.25;4978660;28;20046;-63
2022/09/08 07:57:53;;;;;;;5.35;3.78;;;;;;;25.53;42.80;95320.97;4978605;28;20053;-64
2022/09/08 08:00:24;;;;;;;6.72;4.00;;;;;;;25.40;42.58;95315.41;4985691;28;20041;-63
2022/09/08 08:03:18;;;;;;;5.95;4.15;;;;;;;25.59;42.20;95324.38;4968463;28;20030;-66
2022/09/08 08:06:05;;;;;;;6.18;4.07;;;;;;;25.34;42.15;95284.66;4944840;28;20043;-64
2022/09/08 08:08:50;;;;;;;7.03;4.10;;;;;;;25.14;42.21;95252.38;4971843;28;20047;-67
2022/09/08 08:11:48;;;;;;;6.72;3.90;;;;;;;25.65;42.53;95319.59;4949318;28;20034;-63
2022/09/08 08:14:44;;;;;;;6.25;3.70;;;;;;;25.02;42.34;95220.94;4924172;28;20529;-64
2022/09/08 08:17:12;;;;;;;6.25;3.50;;;;;;;25.69;42.43;95320.78;4952063;28;20042;-64
2022/09/08 08:19:47;;;;;;;7.30;4.57;;;;;;;25.74;42.21;95327.44;4984404;28;20306;-67
2022/09/08 08:22:22;;;;;;;6.03;4.15;;;;;;;25.75;42.25;95318.00;4984850;28;20495;-67
2022/09/08 08:25:09;;;;;;;4.38;3.45;;;;;;;24.94;42.14;95206.34;4959799;28;20054;-68
2022/09/08 08:27:53;;;;;;;6.55;3.70;;;;;;;24.92;41.90;95197.19;4963106;28;20038;-69
2022/09/08 08:30:22;;;;;;;5.93;3.75;;;;;;;25.08;41.87;95218.91;4979684;28;20138;-65
2022/09/08 08:32:58;;;;;;;4.47;3.53;;;;;;;25.66;42.18;95308.16;4983742;28;20038;-64
2022/09/08 08:35:49;;;;;;;5.72;3.40;;;;;;;25.85;41.98;95323.31;4969417;28;20042;-63
2022/09/08 08:38:25;;;;;;;4.88;3.78;;;;;;;25.49;42.07;95263.09;4971490;28;20047;-68
2022/09/08 08:40:54;;;;;;;5.70;4.15;;;;;;;25.77;41.77;95304.53;5004967;28;20053;-64
2022/09/08 08:43:25;;;;;;;4.45;3.75;;;;;;;25.88;41.98;95299.66;5005102;28;20021;-64
2022/09/08 08:46:21;;;;;;;4.47;3.58;;;;;;;25.90;42.04;95292.41;5010254;28;20042;-66
2022/09/08 08:48:59;;;;;;;5.95;3.90;;;;;;;25.93;42.10;95296.84;4987483;28;20803;-63
2022/09/08 08:51:49;;;;;;;5.70;3.90;;;;;;;25.38;41.83;95203.06;5013955;28;20057;-65
2022/09/08 08:54:50;;;;;;;5.43;3.55;;;;;;;25.96;42.19;95284.09;4983912;28;20034;-68
2022/09/08 08:57:40;;;;;;;4.07;3.40;;;;;;;26.00;42.00;95285.28;4969124;28;20070;-68
2022/09/08 09:00:33;;;;;;;5.32;3.58;;;;;;;26.00;42.05;95279.81;5004382;28;20041;-68
2022/09/08 09:03:10;;;;;;;5.45;3.47;;;;;;;26.03;42.06;95272.56;4984607;28;20117;-67
2022/09/08 09:05:36;;;;;;;5.68;3.90;;;;;;;26.04;41.77;95266.56;5003247;28;20100;-66
2022/09/08 09:08:04;;;;;;;5.05;3.42;;;;;;;25.99;42.29;95261.94;5012984;28;20105;-70
2022/09/08 09:10:29;;;;;;;4.38;3.40;;;;;;;26.00;42.32;95257.91;5004520;28;20033;-65
2022/09/08 09:12:58;;;;;;;5.93;3.58;;;;;;;25.32;42.44;95150.50;5005353;28;20410;-69
2022/09/08 09:15:33;;;;;;;5.63;3.30;;;;;;;25.98;42.45;95249.50;5000305;28;20060;-68
2022/09/08 09:18:41;;;;;;;4.93;3.90;;;;;;;25.61;42.44;95187.84;5003007;28;20561;-65
2022/09/08 09:21:26;;;;;;;5.43;3.80;;;;;;;26.12;42.63;95245.53;4985343;28;20121;-68
2022/09/08 09:24:03;;;;;;;5.47;3.53;;;;;;;26.16;42.54;95224.06;5005806;28;20042;-69
2022/09/08 09:26:34;;;;;;;6.57;3.60;;;;;;;26.10;41.86;95223.44;4971423;28;20046;-65
2022/09/08 09:29:14;;;;;;;5.10;3.50;;;;;;;26.20;41.70;95232.69;5005393;28;20034;-68
2022/09/08 09:31:45;;;;;;;4.07;3.33;;;;;;;26.21;41.97;95223.25;5005072;28;20033;-64
2022/09/08 09:34:36;;;;;;;4.55;3.45;;;;;;;26.04;41.89;95192.66;5014997;28;20030;-67
2022/09/08 09:37:24;;;;;;;4.50;3.60;;;;;;;26.25;42.36;95212.72;4986114;28;20065;-69
2022/09/08 09:40:27;;;;;;;4.88;3.40;;;;;;;26.23;42.38;95225.44;5001583;28;20084;-67
2022/09/08 09:43:16;;;;;;;5.78;3.22;;;;;;;26.31;42.12;95213.41;5020010;28;20040;-67
2022/09/08 09:45:56;;;;;;;4.38;3.70;;;;;;;26.32;41.88;95212.13;4987316;28;20148;-67
2022/09/08 09:48:43;;;;;;;5.50;3.72;;;;;;;26.33;42.10;95208.84;5004812;28;20045;-65
2022/09/08 09:51:15;;;;;;;6.63;4.00;;;;;;;26.35;42.42;95203.63;5005443;28;20049;-66
2022/09/08 09:54:07;;;;;;;3.72;3.28;;;;;;;26.10;42.52;95156.97;4999913;28;20047;-67
2022/09/08 09:57:03;;;;;;;6.40;3.47;;;;;;;26.31;42.63;95191.50;4989509;28;20123;-70
2022/09/08 09:59:54;;;;;;;4.95;3.75;;;;;;;26.36;42.36;95190.66;4998537;28;20042;-69
2022/09/08 10:02:28;;;;;;;5.03;3.40;;;;;;;26.39;42.39;95178.66;5005006;28;20034;-68
2022/09/08 10:05:18;;;;;;;4.55;3.55;;;;;;;26.41;42.53;95187.06;5004578;28;20065;-65
2022/09/08 10:08:05;;;;;;;5.30;3.40;;;;;;;26.41;42.37;95181.59;5004452;28;20049;-70
2022/09/08 10:10:39;;;;;;;4.75;3.55;;;;;;;26.37;42.93;95170.22;4985593;28;20041;-69
2022/09/08 10:13:08;;;;;;;3.80;3.40;;;;;;;26.34;42.99;95165.81;5001251;28;20022;-69
2022/09/08 10:15:55;;;;;;;3.38;3.03;;;;;;;26.35;42.86;95167.25;5007751;28;20073;-66
2022/09/08 10:18:38;;;;;;;4.57;3.45;;;;;;;26.39;42.85;95152.00;5004463;28;20042;-64
2022/09/08 10:21:15;;;;;;;3.97;3.58;;;;;;;25.57;42.78;95032.25;5003505;28;20045;-66
2022/09/08 10:24:00;;;;;;;4.10;3.28;;;;;;;26.42;43.13;95152.94;5003748;28;20046;-66
2022/09/08 10:26:28;;;;;;;4.88;3.45;;;;;;;26.44;42.96;95142.19;5006103;28;20071;-67
2022/09/08 10:29:16;;;;;;;5.50;3.80;;;;;;;25.83;43.07;95057.69;5003404;28;20038;-65
2022/09/08 10:32:00;;;;;;;4.22;3.00;;;;;;;26.48;42.92;95142.63;5010251;28;20038;-68
2022/09/08 10:34:34;;;;;;;4.45;3.60;;;;;;;26.49;43.32;95138.63;4994587;28;20100;-68
2022/09/08 10:37:39;;;;;;;4.30;3.33;;;;;;;26.43;42.65;95125.03;4977189;28;20033;-69
2022/09/08 10:40:08;;;;;;;4.35;3.78;;;;;;;26.55;43.06;95131.06;4981724;28;20034;-66
2022/09/08 10:42:53;;;;;;;4.25;3.42;;;;;;;25.98;43.40;95046.97;5000052;28;20104;-69
2022/09/08 10:45:30;;;;;;;4.65;3.42;;;;;;;26.56;43.00;95127.03;5006288;28;20037;-63
2022/09/08 10:47:56;;;;;;;4.60;3.53;;;;;;;26.59;43.25;95125.97;5000711;28;20069;-70
2022/09/08 10:50:23;;;;;;;4.35;3.40;;;;;;;26.43;43.01;95116.09;5008755;28;20072;-67
2022/09/08 10:53:00;;;;;;;4.90;3.28;;;;;;;26.59;42.92;95125.97;5007204;28;20472;-63
2022/09/08 10:55:48;;;;;;;3.92;3.50;;;;;;;26.63;42.75;95131.88;4987286;28;20043;-65
2022/09/08 10:58:35;;;;;;;3.70;3.35;;;;;;;26.63;42.79;95113.44;5008896;28;20030;-65
2022/09/08 11:01:19;;;;;;;3.95;3.42;;;;;;;26.69;42.83;95118.81;5002849;28;20584;-67
2022/09/08 11:03:54;;;;;;;4.47;3.42;;;;;;;26.69;43.00;95118.81;5006889;28;20034;-68
2022/09/08 11:07:14;;;;;;;4.55;3.53;;;;;;;26.68;43.00;95111.84;5004573;28;20038;-68
2022/09/08 11:09:50;;;;;;;5.05;3.90;;;;;;;26.69;43.04;95105.84;4968181;28;20136;-66
2022/09/08 11:12:34;;;;;;;5.03;3.60;;;;;;;26.71;42.58;95110.78;4996395;28;20038;-64
2022/09/08 11:15:15;;;;;;;4.63;3.40;;;;;;;26.76;42.79;95101.75;4990391;28;20351;-63
2022/09/08 11:17:46;;;;;;;4.05;3.45;;;;;;;25.99;43.16;94990.97;5006302;28;20554;-65
2022/09/08 11:20:30;;;;;;;4.15;3.33;;;;;;;26.39;43.00;95036.25;5017369;28;20053;-63
2022/09/08 11:23:00;;;;;;;4.18;3.53;;;;;;;26.76;42.83;95094.97;5004979;28;20395;-66
2022/09/08 11:25:43;;;;;;;;;;;;;;;26.79;42.92;95099.41;5006931;28;20033;-65
2022/09/08 11:28:12;;;;;;;5.45;4.00;;;;;;;26.43;43.30;95042.16;5013296;28;19964;-67
2022/09/08 11:30:44;;;;;;;4.05;3.60;;;;;;;26.80;42.97;95098.16;4994611;28;20077;-64
2022/09/08 11:33:21;;;;;;;4.72;3.80;;;;;;;26.82;42.92;95098.34;5002573;28;20048;-63
2022/09/08 11:35:56;;;;;;;6.05;4.07;;;;;;;26.82;42.67;95095.59;4984530;28;20786;-67
2022/09/08 11:38:24;;;;;;;4.82;3.80;;;;;;;26.84;42.54;95093.06;5005087;28;20042;-67
2022/09/08 11:40:52;;;;;;;4.45;3.80;;;;;;;26.85;42.65;95100.03;4996697;28;20041;-65
2022/09/08 11:43:34;;;;;;;5.88;3.38;;;;;;;26.87;42.99;95102.97;5013467;28;20041;-68
2022/09/08 11:46:21;;;;;;;4.68;4.03;;;;;;;26.88;42.98;95104.44;5005965;28;20160;-65
2022/09/08 11:49:11;;;;;;;4.93;3.70;;;;;;;26.85;42.74;95097.28;5018549;28;20042;-65
2022/09/08 11:52:11;;;;;;;4.43;3.42;;;;;;;26.90;42.79;95095.72;4975722;28;20522;-66
2022/09/08 11:54:41;;;;;;;4.20;3.80;;;;;;;26.93;42.73;95095.38;4990072;28;20053;-66
2022/09/08 11:57:36;;;;;;;5.32;3.60;;;;;;;26.57;42.94;95051.81;5005279;28;20132;-62
2022/09/08 12:00:14;;;;;;;4.88;3.83;;;;;;;26.94;42.97;95102.34;5001150;28;20318;-62
2022/09/08 12:03:17;;;;;;;5.57;3.70;;;;;;;26.96;42.48;95088.84;5010637;28;20526;-64
2022/09/08 12:06:16;;;;;;;4.47;4.03;;;;;;;26.98;42.68;95091.81;5010194;28;20529;-65